Boston, Massachusetts
Traffic Map
Current Weather Conditions
Boston, Massachusetts
Broken Clouds
Broken Clouds
11°
Feels Like: 11°
Wind Chill: 11° Ceiling: 6000
Heat Index: 11° Visibility: 10mi
Dew Point: Wind: 12mph
Humidity: 59% Direction: 80° (E)
Pressure: 30.03in Gusts: 0mph
Raw Report DataKBOS 311554Z 08010KT 10SM FEW035 BKN060 BKN250 11/03 A3003 RMK AO2 SLP169 T01110033
Traffic Incident Summary
Active as of:
Severity:
Category:
InformationThere was an issue retrieving the traffic information for this location. Please try a different location or try again shortly.
Advertisements
Track Severe Weather on mobile